sensor_id;sensor_type;location;lat;lon;timestamp;temperature;humidity
15991;DHT22;8100;50.994;4.538;2022-08-06T00:01:14;11.70;99.90
15991;DHT22;8100;50.994;4.538;2022-08-06T00:04:01;11.60;99.90
15991;DHT22;8100;50.994;4.538;2022-08-06T00:06:47;11.50;99.90
15991;DHT22;8100;50.994;4.538;2022-08-06T00:09:34;11.50;99.90
15991;DHT22;8100;50.994;4.538;2022-08-06T00:12:22;11.40;99.90
15991;DHT22;8100;50.994;4.538;2022-08-06T00:15:09;11.40;99.90
15991;DHT22;8100;50.994;4.538;2022-08-06T00:17:56;11.40;99.90
15991;DHT22;8100;50.994;4.538;2022-08-06T00:20:41;11.30;99.90
15991;DHT22;8100;50.994;4.538;2022-08-06T00:23:29;11.30;99.90
15991;DHT22;8100;50.994;4.538;2022-08-06T00:26:14;11.20;99.90
15991;DHT22;8100;50.994;4.538;2022-08-06T00:29:03;11.10;99.90
15991;DHT22;8100;50.994;4.538;2022-08-06T00:31:49;11.10;99.90
15991;DHT22;8100;50.994;4.538;2022-08-06T00:34:36;11.10;99.90
15991;DHT22;8100;50.994;4.538;2022-08-06T00:37:22;11.10;99.90
15991;DHT22;8100;50.994;4.538;2022-08-06T00:40:09;11.00;99.90
15991;DHT22;8100;50.994;4.538;2022-08-06T00:42:57;11.10;99.90
15991;DHT22;8100;50.994;4.538;2022-08-06T00:45:45;11.00;99.90
15991;DHT22;8100;50.994;4.538;2022-08-06T00:48:31;11.00;99.90
15991;DHT22;8100;50.994;4.538;2022-08-06T00:51:16;11.00;99.90
15991;DHT22;8100;50.994;4.538;2022-08-06T00:54:03;10.90;99.90
15991;DHT22;8100;50.994;4.538;2022-08-06T00:56:51;11.00;99.90
15991;DHT22;8100;50.994;4.538;2022-08-06T00:59:36;11.00;99.90
15991;DHT22;8100;50.994;4.538;2022-08-06T01:02:25;11.00;99.90
15991;DHT22;8100;50.994;4.538;2022-08-06T01:05:11;10.90;99.90
15991;DHT22;8100;50.994;4.538;2022-08-06T01:07:58;11.00;99.90
15991;DHT22;8100;50.994;4.538;2022-08-06T01:10:45;11.00;99.90
15991;DHT22;8100;50.994;4.538;2022-08-06T01:13:31;11.00;99.90
15991;DHT22;8100;50.994;4.538;2022-08-06T01:16:22;11.00;99.90
15991;DHT22;8100;50.994;4.538;2022-08-06T01:19:29;11.00;99.90
15991;DHT22;8100;50.994;4.538;2022-08-06T01:22:44;10.90;99.90
15991;DHT22;8100;50.994;4.538;2022-08-06T01:29:02;10.60;99.90
15991;DHT22;8100;50.994;4.538;2022-08-06T01:31:53;10.60;99.90
15991;DHT22;8100;50.994;4.538;2022-08-06T01:34:48;10.70;99.90
15991;DHT22;8100;50.994;4.538;2022-08-06T01:37:38;10.70;99.90
15991;DHT22;8100;50.994;4.538;2022-08-06T01:40:28;10.60;99.90
15991;DHT22;8100;50.994;4.538;2022-08-06T01:43:19;10.50;99.90
15991;DHT22;8100;50.994;4.538;2022-08-06T01:46:07;10.50;99.90
15991;DHT22;8100;50.994;4.538;2022-08-06T01:48:55;10.50;99.90
15991;DHT22;8100;50.994;4.538;2022-08-06T01:51:41;10.50;99.90
15991;DHT22;8100;50.994;4.538;2022-08-06T01:54:29;10.40;99.90
15991;DHT22;8100;50.994;4.538;2022-08-06T01:57:17;10.40;99.90
15991;DHT22;8100;50.994;4.538;2022-08-06T02:00:06;10.40;99.90
15991;DHT22;8100;50.994;4.538;2022-08-06T02:02:56;10.40;99.90
15991;DHT22;8100;50.994;4.538;2022-08-06T02:05:44;10.40;99.90
15991;DHT22;8100;50.994;4.538;2022-08-06T02:08:32;10.40;99.90
15991;DHT22;8100;50.994;4.538;2022-08-06T02:11:21;10.30;99.90
15991;DHT22;8100;50.994;4.538;2022-08-06T02:14:08;10.30;99.90
15991;DHT22;8100;50.994;4.538;2022-08-06T02:16:57;10.30;99.90
15991;DHT22;8100;50.994;4.538;2022-08-06T02:19:48;10.20;99.90
15991;DHT22;8100;50.994;4.538;2022-08-06T02:22:37;10.20;99.90
15991;DHT22;8100;50.994;4.538;2022-08-06T02:25:13;10.10;99.90
15991;DHT22;8100;50.994;4.538;2022-08-06T02:28:03;10.10;99.90
15991;DHT22;8100;50.994;4.538;2022-08-06T02:30:52;10.10;99.90
15991;DHT22;8100;50.994;4.538;2022-08-06T02:33:38;10.10;99.90
15991;DHT22;8100;50.994;4.538;2022-08-06T02:36:33;10.10;99.90
15991;DHT22;8100;50.994;4.538;2022-08-06T02:39:23;10.10;99.90
15991;DHT22;8100;50.994;4.538;2022-08-06T02:42:16;10.10;99.90
15991;DHT22;8100;50.994;4.538;2022-08-06T02:45:05;10.10;99.90
15991;DHT22;8100;50.994;4.538;2022-08-06T02:47:57;10.20;99.90
15991;DHT22;8100;50.994;4.538;2022-08-06T02:50:46;10.10;99.90
15991;DHT22;8100;50.994;4.538;2022-08-06T02:53:43;10.10;99.90
15991;DHT22;8100;50.994;4.538;2022-08-06T02:56:31;10.10;99.90
15991;DHT22;8100;50.994;4.538;2022-08-06T02:59:23;10.20;99.90
15991;DHT22;8100;50.994;4.538;2022-08-06T03:02:11;10.20;99.90
15991;DHT22;8100;50.994;4.538;2022-08-06T03:05:00;10.10;99.90
15991;DHT22;8100;50.994;4.538;2022-08-06T03:07:50;10.00;99.90
15991;DHT22;8100;50.994;4.538;2022-08-06T03:10:38;10.00;99.90
15991;DHT22;8100;50.994;4.538;2022-08-06T03:13:26;10.10;99.90
15991;DHT22;8100;50.994;4.538;2022-08-06T03:16:13;10.00;99.90
15991;DHT22;8100;50.994;4.538;2022-08-06T03:19:00;9.90;99.90
15991;DHT22;8100;50.994;4.538;2022-08-06T03:21:47;9.90;99.90
15991;DHT22;8100;50.994;4.538;2022-08-06T03:24:37;9.90;99.90
15991;DHT22;8100;50.994;4.538;2022-08-06T03:27:25;9.90;99.90
15991;DHT22;8100;50.994;4.538;2022-08-06T03:30:13;9.90;99.90
15991;DHT22;8100;50.994;4.538;2022-08-06T03:33:00;9.90;99.90
15991;DHT22;8100;50.994;4.538;2022-08-06T03:35:48;9.90;99.90
15991;DHT22;8100;50.994;4.538;2022-08-06T03:38:39;9.90;99.90
15991;DHT22;8100;50.994;4.538;2022-08-06T03:41:28;9.90;99.90
15991;DHT22;8100;50.994;4.538;2022-08-06T03:44:16;9.90;99.90
15991;DHT22;8100;50.994;4.538;2022-08-06T03:47:05;9.90;99.90
15991;DHT22;8100;50.994;4.538;2022-08-06T03:49:55;9.80;99.90
15991;DHT22;8100;50.994;4.538;2022-08-06T03:52:46;9.70;99.90
15991;DHT22;8100;50.994;4.538;2022-08-06T03:55:34;9.80;99.90
15991;DHT22;8100;50.994;4.538;2022-08-06T03:58:22;9.80;99.90
15991;DHT22;8100;50.994;4.538;2022-08-06T04:01:16;9.80;99.90
15991;DHT22;8100;50.994;4.538;2022-08-06T04:04:04;9.80;99.90
15991;DHT22;8100;50.994;4.538;2022-08-06T04:06:50;9.80;99.90
15991;DHT22;8100;50.994;4.538;2022-08-06T04:09:38;9.70;99.90
15991;DHT22;8100;50.994;4.538;2022-08-06T04:12:24;9.70;99.90
15991;DHT22;8100;50.994;4.538;2022-08-06T04:15:13;9.70;99.90
15991;DHT22;8100;50.994;4.538;2022-08-06T04:18:01;9.70;99.90
15991;DHT22;8100;50.994;4.538;2022-08-06T04:20:51;9.70;99.90
15991;DHT22;8100;50.994;4.538;2022-08-06T04:23:37;9.70;99.90
15991;DHT22;8100;50.994;4.538;2022-08-06T04:26:24;9.70;99.90
15991;DHT22;8100;50.994;4.538;2022-08-06T04:29:17;9.70;99.90
15991;DHT22;8100;50.994;4.538;2022-08-06T04:32:04;9.80;99.90
15991;DHT22;8100;50.994;4.538;2022-08-06T04:34:54;9.70;99.90
15991;DHT22;8100;50.994;4.538;2022-08-06T04:37:43;9.80;99.90
15991;DHT22;8100;50.994;4.538;2022-08-06T04:40:29;9.80;99.90
15991;DHT22;8100;50.994;4.538;2022-08-06T04:42:58;9.90;99.90
15991;DHT22;8100;50.994;4.538;2022-08-06T04:45:44;9.90;99.90
15991;DHT22;8100;50.994;4.538;2022-08-06T04:48:33;9.90;99.90
15991;DHT22;8100;50.994;4.538;2022-08-06T04:51:22;10.10;99.90
15991;DHT22;8100;50.994;4.538;2022-08-06T04:54:07;10.20;99.90
15991;DHT22;8100;50.994;4.538;2022-08-06T04:56:53;10.20;99.90
15991;DHT22;8100;50.994;4.538;2022-08-06T04:59:38;10.20;99.90
15991;DHT22;8100;50.994;4.538;2022-08-06T05:02:06;10.30;99.90
15991;DHT22;8100;50.994;4.538;2022-08-06T05:04:53;10.40;99.90
15991;DHT22;8100;50.994;4.538;2022-08-06T05:07:44;10.40;99.90
15991;DHT22;8100;50.994;4.538;2022-08-06T05:10:37;10.60;99.90
15991;DHT22;8100;50.994;4.538;2022-08-06T05:13:26;10.80;99.90
15991;DHT22;8100;50.994;4.538;2022-08-06T05:16:17;11.00;99.90
15991;DHT22;8100;50.994;4.538;2022-08-06T05:19:08;11.10;99.90
15991;DHT22;8100;50.994;4.538;2022-08-06T05:21:58;11.20;99.90
15991;DHT22;8100;50.994;4.538;2022-08-06T05:24:47;11.20;99.90
15991;DHT22;8100;50.994;4.538;2022-08-06T05:27:34;11.30;99.90
15991;DHT22;8100;50.994;4.538;2022-08-06T05:30:20;11.50;99.90
15991;DHT22;8100;50.994;4.538;2022-08-06T05:33:06;11.60;99.90
15991;DHT22;8100;50.994;4.538;2022-08-06T05:35:52;11.70;99.90
15991;DHT22;8100;50.994;4.538;2022-08-06T05:38:40;11.60;99.90
15991;DHT22;8100;50.994;4.538;2022-08-06T05:41:27;11.80;99.90
15991;DHT22;8100;50.994;4.538;2022-08-06T05:44:15;11.90;99.90
15991;DHT22;8100;50.994;4.538;2022-08-06T05:47:04;12.00;99.90
15991;DHT22;8100;50.994;4.538;2022-08-06T05:50:05;12.10;99.90
15991;DHT22;8100;50.994;4.538;2022-08-06T05:52:55;12.30;99.90
15991;DHT22;8100;50.994;4.538;2022-08-06T05:55:49;12.60;99.90
15991;DHT22;8100;50.994;4.538;2022-08-06T05:58:41;12.90;99.90
15991;DHT22;8100;50.994;4.538;2022-08-06T06:01:29;13.20;99.90
15991;DHT22;8100;50.994;4.538;2022-08-06T06:04:16;13.40;99.90
15991;DHT22;8100;50.994;4.538;2022-08-06T06:07:05;13.40;99.90
15991;DHT22;8100;50.994;4.538;2022-08-06T06:09:51;13.40;99.90
15991;DHT22;8100;50.994;4.538;2022-08-06T06:12:39;13.50;99.90
15991;DHT22;8100;50.994;4.538;2022-08-06T06:15:27;13.80;99.90
15991;DHT22;8100;50.994;4.538;2022-08-06T06:18:20;13.80;99.90
15991;DHT22;8100;50.994;4.538;2022-08-06T06:21:13;13.90;99.90
15991;DHT22;8100;50.994;4.538;2022-08-06T06:24:11;14.10;99.90
15991;DHT22;8100;50.994;4.538;2022-08-06T06:27:03;14.20;99.90
15991;DHT22;8100;50.994;4.538;2022-08-06T06:29:54;14.30;99.90
15991;DHT22;8100;50.994;4.538;2022-08-06T06:32:49;14.40;99.90
15991;DHT22;8100;50.994;4.538;2022-08-06T06:35:45;14.50;99.90
15991;DHT22;8100;50.994;4.538;2022-08-06T06:38:38;14.70;99.90
15991;DHT22;8100;50.994;4.538;2022-08-06T06:41:32;14.80;99.90
15991;DHT22;8100;50.994;4.538;2022-08-06T06:44:22;14.80;99.90
15991;DHT22;8100;50.994;4.538;2022-08-06T06:47:14;15.00;99.90
15991;DHT22;8100;50.994;4.538;2022-08-06T06:50:06;15.10;99.90
15991;DHT22;8100;50.994;4.538;2022-08-06T06:52:56;15.20;99.90
15991;DHT22;8100;50.994;4.538;2022-08-06T06:55:46;15.20;99.90
15991;DHT22;8100;50.994;4.538;2022-08-06T06:58:36;15.30;99.90
15991;DHT22;8100;50.994;4.538;2022-08-06T07:01:24;15.40;99.90
15991;DHT22;8100;50.994;4.538;2022-08-06T07:03:56;15.70;99.90
15991;DHT22;8100;50.994;4.538;2022-08-06T07:06:41;15.90;99.90
15991;DHT22;8100;50.994;4.538;2022-08-06T07:09:33;16.00;99.90
15991;DHT22;8100;50.994;4.538;2022-08-06T07:12:23;16.20;99.90
15991;DHT22;8100;50.994;4.538;2022-08-06T07:15:11;16.40;99.90
15991;DHT22;8100;50.994;4.538;2022-08-06T07:18:01;16.50;99.90
15991;DHT22;8100;50.994;4.538;2022-08-06T07:20:47;16.50;99.90
15991;DHT22;8100;50.994;4.538;2022-08-06T07:23:34;16.60;99.90
15991;DHT22;8100;50.994;4.538;2022-08-06T07:26:02;16.70;99.90
15991;DHT22;8100;50.994;4.538;2022-08-06T07:28:51;16.90;99.90
15991;DHT22;8100;50.994;4.538;2022-08-06T07:31:37;17.10;99.90
15991;DHT22;8100;50.994;4.538;2022-08-06T07:34:26;17.20;99.90
15991;DHT22;8100;50.994;4.538;2022-08-06T07:37:12;17.20;99.90
15991;DHT22;8100;50.994;4.538;2022-08-06T07:40:00;17.30;99.90
15991;DHT22;8100;50.994;4.538;2022-08-06T07:42:28;17.10;99.90
15991;DHT22;8100;50.994;4.538;2022-08-06T07:45:17;17.50;99.90
15991;DHT22;8100;50.994;4.538;2022-08-06T07:48:06;17.40;99.90
15991;DHT22;8100;50.994;4.538;2022-08-06T07:50:53;17.50;99.90
15991;DHT22;8100;50.994;4.538;2022-08-06T07:53:42;17.70;99.90
15991;DHT22;8100;50.994;4.538;2022-08-06T07:56:29;17.80;99.90
15991;DHT22;8100;50.994;4.538;2022-08-06T07:59:16;18.00;99.90
15991;DHT22;8100;50.994;4.538;2022-08-06T08:02:03;18.20;99.90
15991;DHT22;8100;50.994;4.538;2022-08-06T08:04:50;18.20;99.90
15991;DHT22;8100;50.994;4.538;2022-08-06T08:07:53;18.20;99.90
15991;DHT22;8100;50.994;4.538;2022-08-06T08:10:39;18.30;99.90
15991;DHT22;8100;50.994;4.538;2022-08-06T08:13:27;18.20;99.90
15991;DHT22;8100;50.994;4.538;2022-08-06T08:16:16;18.20;99.90
15991;DHT22;8100;50.994;4.538;2022-08-06T08:19:18;18.30;99.90
15991;DHT22;8100;50.994;4.538;2022-08-06T08:22:09;18.30;99.90
15991;DHT22;8100;50.994;4.538;2022-08-06T08:24:55;18.70;99.90
15991;DHT22;8100;50.994;4.538;2022-08-06T08:27:42;18.90;99.90
15991;DHT22;8100;50.994;4.538;2022-08-06T08:30:29;18.80;99.90
15991;DHT22;8100;50.994;4.538;2022-08-06T08:33:17;18.60;99.90
15991;DHT22;8100;50.994;4.538;2022-08-06T08:36:04;18.50;99.90
15991;DHT22;8100;50.994;4.538;2022-08-06T08:38:51;18.30;99.90
15991;DHT22;8100;50.994;4.538;2022-08-06T08:41:43;18.30;99.90
15991;DHT22;8100;50.994;4.538;2022-08-06T08:44:30;18.30;99.90
15991;DHT22;8100;50.994;4.538;2022-08-06T08:47:09;18.50;99.90
15991;DHT22;8100;50.994;4.538;2022-08-06T08:49:59;18.70;99.90
15991;DHT22;8100;50.994;4.538;2022-08-06T08:52:48;18.80;99.90
15991;DHT22;8100;50.994;4.538;2022-08-06T08:55:36;18.90;99.90
15991;DHT22;8100;50.994;4.538;2022-08-06T08:58:22;19.00;99.90
15991;DHT22;8100;50.994;4.538;2022-08-06T09:01:11;19.20;99.90
15991;DHT22;8100;50.994;4.538;2022-08-06T09:03:49;19.50;99.90
15991;DHT22;8100;50.994;4.538;2022-08-06T09:06:36;20.00;99.90
15991;DHT22;8100;50.994;4.538;2022-08-06T09:09:23;20.20;99.90
15991;DHT22;8100;50.994;4.538;2022-08-06T09:12:10;20.30;99.90
15991;DHT22;8100;50.994;4.538;2022-08-06T09:14:56;20.20;99.90
15991;DHT22;8100;50.994;4.538;2022-08-06T09:17:45;20.10;99.90
15991;DHT22;8100;50.994;4.538;2022-08-06T09:20:33;20.00;99.90
15991;DHT22;8100;50.994;4.538;2022-08-06T09:23:21;20.30;99.90
15991;DHT22;8100;50.994;4.538;2022-08-06T09:26:06;20.40;99.90
15991;DHT22;8100;50.994;4.538;2022-08-06T09:28:53;20.30;99.90
15991;DHT22;8100;50.994;4.538;2022-08-06T09:31:41;20.00;99.90
15991;DHT22;8100;50.994;4.538;2022-08-06T09:34:35;20.20;99.90
15991;DHT22;8100;50.994;4.538;2022-08-06T09:37:29;20.20;99.90
15991;DHT22;8100;50.994;4.538;2022-08-06T09:40:17;20.20;99.90
15991;DHT22;8100;50.994;4.538;2022-08-06T09:43:04;20.10;99.90
15991;DHT22;8100;50.994;4.538;2022-08-06T09:45:50;19.70;99.90
15991;DHT22;8100;50.994;4.538;2022-08-06T09:48:37;19.60;99.90
15991;DHT22;8100;50.994;4.538;2022-08-06T09:51:29;19.90;99.90
15991;DHT22;8100;50.994;4.538;2022-08-06T09:54:20;20.00;99.90
15991;DHT22;8100;50.994;4.538;2022-08-06T09:57:05;20.20;99.90
15991;DHT22;8100;50.994;4.538;2022-08-06T09:59:53;20.40;99.90
15991;DHT22;8100;50.994;4.538;2022-08-06T10:02:32;20.70;99.90
15991;DHT22;8100;50.994;4.538;2022-08-06T10:05:20;20.60;99.90
15991;DHT22;8100;50.994;4.538;2022-08-06T10:08:09;20.60;99.90
15991;DHT22;8100;50.994;4.538;2022-08-06T10:10:57;20.60;99.90
15991;DHT22;8100;50.994;4.538;2022-08-06T10:13:48;20.30;99.90
15991;DHT22;8100;50.994;4.538;2022-08-06T10:16:35;20.10;99.90
15991;DHT22;8100;50.994;4.538;2022-08-06T10:19:21;20.10;99.90
15991;DHT22;8100;50.994;4.538;2022-08-06T10:22:09;20.20;99.90
15991;DHT22;8100;50.994;4.538;2022-08-06T10:24:56;20.60;99.90
15991;DHT22;8100;50.994;4.538;2022-08-06T10:27:49;21.10;99.90
15991;DHT22;8100;50.994;4.538;2022-08-06T10:30:40;21.00;99.90
15991;DHT22;8100;50.994;4.538;2022-08-06T10:33:32;21.10;99.90
15991;DHT22;8100;50.994;4.538;2022-08-06T10:36:22;21.40;99.90
15991;DHT22;8100;50.994;4.538;2022-08-06T10:39:09;21.60;99.90
15991;DHT22;8100;50.994;4.538;2022-08-06T10:41:57;21.40;99.90
15991;DHT22;8100;50.994;4.538;2022-08-06T10:44:27;21.00;99.90
15991;DHT22;8100;50.994;4.538;2022-08-06T10:47:16;20.60;99.90
15991;DHT22;8100;50.994;4.538;2022-08-06T10:50:02;20.90;99.90
15991;DHT22;8100;50.994;4.538;2022-08-06T10:52:49;21.50;99.20
15991;DHT22;8100;50.994;4.538;2022-08-06T10:55:36;22.00;98.80
15991;DHT22;8100;50.994;4.538;2022-08-06T10:58:22;22.30;99.30
15991;DHT22;8100;50.994;4.538;2022-08-06T11:01:07;22.20;97.10
15991;DHT22;8100;50.994;4.538;2022-08-06T11:04:07;21.80;94.80
15991;DHT22;8100;50.994;4.538;2022-08-06T11:07:22;21.90;94.40
15991;DHT22;8100;50.994;4.538;2022-08-06T11:10:34;21.50;95.90
15991;DHT22;8100;50.994;4.538;2022-08-06T11:13:30;21.60;93.30
15991;DHT22;8100;50.994;4.538;2022-08-06T11:16:23;21.10;93.60
15991;DHT22;8100;50.994;4.538;2022-08-06T11:19:11;21.10;93.70
15991;DHT22;8100;50.994;4.538;2022-08-06T11:21:41;21.30;94.80
15991;DHT22;8100;50.994;4.538;2022-08-06T11:24:27;21.70;93.70
15991;DHT22;8100;50.994;4.538;2022-08-06T11:27:46;21.90;92.80
15991;DHT22;8100;50.994;4.538;2022-08-06T11:30:37;22.10;92.80
15991;DHT22;8100;50.994;4.538;2022-08-06T11:34:00;22.00;91.50
15991;DHT22;8100;50.994;4.538;2022-08-06T11:36:52;21.90;91.20
15991;DHT22;8100;50.994;4.538;2022-08-06T11:40:06;21.70;92.00
15991;DHT22;8100;50.994;4.538;2022-08-06T11:42:54;22.10;92.70
15991;DHT22;8100;50.994;4.538;2022-08-06T11:46:17;22.50;89.90
15991;DHT22;8100;50.994;4.538;2022-08-06T11:49:21;22.00;89.00
15991;DHT22;8100;50.994;4.538;2022-08-06T11:52:07;21.80;88.30
15991;DHT22;8100;50.994;4.538;2022-08-06T11:55:00;22.00;87.70
15991;DHT22;8100;50.994;4.538;2022-08-06T11:57:47;22.10;85.00
15991;DHT22;8100;50.994;4.538;2022-08-06T12:00:54;22.40;87.20
15991;DHT22;8100;50.994;4.538;2022-08-06T12:03:40;22.40;84.00
15991;DHT22;8100;50.994;4.538;2022-08-06T12:06:27;22.40;83.70
15991;DHT22;8100;50.994;4.538;2022-08-06T12:09:14;22.50;83.50
15991;DHT22;8100;50.994;4.538;2022-08-06T12:12:33;22.60;83.20
15991;DHT22;8100;50.994;4.538;2022-08-06T12:15:37;23.10;83.70
15991;DHT22;8100;50.994;4.538;2022-08-06T12:18:24;22.90;81.90
15991;DHT22;8100;50.994;4.538;2022-08-06T12:21:10;22.60;84.00
15991;DHT22;8100;50.994;4.538;2022-08-06T12:23:58;22.90;85.70
15991;DHT22;8100;50.994;4.538;2022-08-06T12:26:45;23.20;81.70
15991;DHT22;8100;50.994;4.538;2022-08-06T12:29:31;23.10;81.20
15991;DHT22;8100;50.994;4.538;2022-08-06T12:32:23;22.50;81.20
15991;DHT22;8100;50.994;4.538;2022-08-06T12:35:11;22.00;80.00
15991;DHT22;8100;50.994;4.538;2022-08-06T12:37:58;21.90;81.90
15991;DHT22;8100;50.994;4.538;2022-08-06T12:40:53;22.30;82.50
15991;DHT22;8100;50.994;4.538;2022-08-06T12:43:42;23.00;84.00
15991;DHT22;8100;50.994;4.538;2022-08-06T12:46:31;23.40;80.70
15991;DHT22;8100;50.994;4.538;2022-08-06T12:49:16;24.00;81.50
15991;DHT22;8100;50.994;4.538;2022-08-06T12:52:11;23.60;77.00
15991;DHT22;8100;50.994;4.538;2022-08-06T12:54:56;23.70;74.50
15991;DHT22;8100;50.994;4.538;2022-08-06T12:57:45;23.80;75.90
15991;DHT22;8100;50.994;4.538;2022-08-06T13:00:32;24.30;75.40
15991;DHT22;8100;50.994;4.538;2022-08-06T13:03:21;24.20;73.70
15991;DHT22;8100;50.994;4.538;2022-08-06T13:05:50;24.10;73.00
15991;DHT22;8100;50.994;4.538;2022-08-06T13:08:38;24.20;72.90
15991;DHT22;8100;50.994;4.538;2022-08-06T13:11:33;23.80;70.30
15991;DHT22;8100;50.994;4.538;2022-08-06T13:14:23;23.40;68.50
15991;DHT22;8100;50.994;4.538;2022-08-06T13:16:50;23.00;71.90
15991;DHT22;8100;50.994;4.538;2022-08-06T13:19:50;22.80;71.20
15991;DHT22;8100;50.994;4.538;2022-08-06T13:22:48;22.70;71.80
15991;DHT22;8100;50.994;4.538;2022-08-06T13:25:45;23.30;71.30
15991;DHT22;8100;50.994;4.538;2022-08-06T13:28:35;23.80;71.20
15991;DHT22;8100;50.994;4.538;2022-08-06T13:31:18;24.00;71.10
15991;DHT22;8100;50.994;4.538;2022-08-06T13:33:58;23.90;69.90
15991;DHT22;8100;50.994;4.538;2022-08-06T13:36:52;23.40;70.60
15991;DHT22;8100;50.994;4.538;2022-08-06T13:39:49;23.00;69.10
15991;DHT22;8100;50.994;4.538;2022-08-06T13:42:48;22.80;68.90
15991;DHT22;8100;50.994;4.538;2022-08-06T13:45:34;22.60;68.70
15991;DHT22;8100;50.994;4.538;2022-08-06T13:48:21;22.60;70.40
15991;DHT22;8100;50.994;4.538;2022-08-06T13:51:09;23.00;73.00
15991;DHT22;8100;50.994;4.538;2022-08-06T13:53:57;23.90;71.60
15991;DHT22;8100;50.994;4.538;2022-08-06T13:56:44;24.70;68.40
15991;DHT22;8100;50.994;4.538;2022-08-06T13:59:31;24.60;68.00
15991;DHT22;8100;50.994;4.538;2022-08-06T14:02:21;24.50;68.00
15991;DHT22;8100;50.994;4.538;2022-08-06T14:05:08;24.50;65.20
15991;DHT22;8100;50.994;4.538;2022-08-06T14:07:54;24.00;66.30
15991;DHT22;8100;50.994;4.538;2022-08-06T14:10:42;23.70;66.60
15991;DHT22;8100;50.994;4.538;2022-08-06T14:13:27;23.40;65.60
15991;DHT22;8100;50.994;4.538;2022-08-06T14:16:15;23.30;69.00
15991;DHT22;8100;50.994;4.538;2022-08-06T14:19:00;24.30;66.20
15991;DHT22;8100;50.994;4.538;2022-08-06T14:21:47;28.80;62.10
15991;DHT22;8100;50.994;4.538;2022-08-06T14:24:33;32.10;55.00
15991;DHT22;8100;50.994;4.538;2022-08-06T14:27:19;33.90;47.30
15991;DHT22;8100;50.994;4.538;2022-08-06T14:30:06;33.60;43.50
15991;DHT22;8100;50.994;4.538;2022-08-06T14:32:54;32.90;40.70
15991;DHT22;8100;50.994;4.538;2022-08-06T14:35:39;32.10;40.10
15991;DHT22;8100;50.994;4.538;2022-08-06T14:38:28;29.20;43.10
15991;DHT22;8100;50.994;4.538;2022-08-06T14:41:13;26.40;46.10
15991;DHT22;8100;50.994;4.538;2022-08-06T14:44:18;24.90;47.00
15991;DHT22;8100;50.994;4.538;2022-08-06T14:47:23;24.10;50.40
15991;DHT22;8100;50.994;4.538;2022-08-06T14:50:09;23.70;51.10
15991;DHT22;8100;50.994;4.538;2022-08-06T14:52:56;23.40;52.00
15991;DHT22;8100;50.994;4.538;2022-08-06T14:55:43;23.30;51.80
15991;DHT22;8100;50.994;4.538;2022-08-06T14:58:30;23.40;52.80
15991;DHT22;8100;50.994;4.538;2022-08-06T15:01:00;23.30;52.30
15991;DHT22;8100;50.994;4.538;2022-08-06T15:03:46;23.30;53.20
15991;DHT22;8100;50.994;4.538;2022-08-06T15:06:13;23.20;53.00
15991;DHT22;8100;50.994;4.538;2022-08-06T15:08:59;23.70;54.50
15991;DHT22;8100;50.994;4.538;2022-08-06T15:11:46;27.60;50.50
15991;DHT22;8100;50.994;4.538;2022-08-06T15:14:13;32.60;45.10
15991;DHT22;8100;50.994;4.538;2022-08-06T15:17:01;35.30;40.70
15991;DHT22;8100;50.994;4.538;2022-08-06T15:19:46;33.10;38.70
15991;DHT22;8100;50.994;4.538;2022-08-06T15:22:32;29.70;41.10
15991;DHT22;8100;50.994;4.538;2022-08-06T15:25:18;26.30;43.90
15991;DHT22;8100;50.994;4.538;2022-08-06T15:28:07;25.00;45.70
15991;DHT22;8100;50.994;4.538;2022-08-06T15:30:53;24.10;48.30
15991;DHT22;8100;50.994;4.538;2022-08-06T15:33:43;23.80;48.60
15991;DHT22;8100;50.994;4.538;2022-08-06T15:36:28;23.50;49.50
15991;DHT22;8100;50.994;4.538;2022-08-06T15:39:14;23.20;49.50
15991;DHT22;8100;50.994;4.538;2022-08-06T15:42:00;22.80;50.90
15991;DHT22;8100;50.994;4.538;2022-08-06T15:44:48;22.70;51.40
15991;DHT22;8100;50.994;4.538;2022-08-06T15:47:34;22.70;51.10
15991;DHT22;8100;50.994;4.538;2022-08-06T15:50:21;22.90;51.70
15991;DHT22;8100;50.994;4.538;2022-08-06T15:53:03;23.00;51.80
15991;DHT22;8100;50.994;4.538;2022-08-06T15:55:51;22.90;52.60
15991;DHT22;8100;50.994;4.538;2022-08-06T15:58:36;22.80;53.30
15991;DHT22;8100;50.994;4.538;2022-08-06T16:01:25;22.60;53.80
15991;DHT22;8100;50.994;4.538;2022-08-06T16:04:11;22.50;54.30
15991;DHT22;8100;50.994;4.538;2022-08-06T16:06:58;22.40;54.30
15991;DHT22;8100;50.994;4.538;2022-08-06T16:09:44;22.30;55.40
15991;DHT22;8100;50.994;4.538;2022-08-06T16:12:31;23.90;54.00
15991;DHT22;8100;50.994;4.538;2022-08-06T16:15:17;27.00;51.60
15991;DHT22;8100;50.994;4.538;2022-08-06T16:18:04;29.90;46.90
15991;DHT22;8100;50.994;4.538;2022-08-06T16:20:44;31.90;44.50
15991;DHT22;8100;50.994;4.538;2022-08-06T16:23:31;32.80;41.70
15991;DHT22;8100;50.994;4.538;2022-08-06T16:26:17;33.50;40.90
15991;DHT22;8100;50.994;4.538;2022-08-06T16:29:05;32.30;40.30
15991;DHT22;8100;50.994;4.538;2022-08-06T16:31:51;31.30;41.40
15991;DHT22;8100;50.994;4.538;2022-08-06T16:34:40;31.30;41.80
15991;DHT22;8100;50.994;4.538;2022-08-06T16:37:27;30.90;41.70
15991;DHT22;8100;50.994;4.538;2022-08-06T16:40:13;30.40;41.90
15991;DHT22;8100;50.994;4.538;2022-08-06T16:43:00;28.20;44.60
15991;DHT22;8100;50.994;4.538;2022-08-06T16:45:46;26.20;47.40
15991;DHT22;8100;50.994;4.538;2022-08-06T16:48:33;25.10;47.50
15991;DHT22;8100;50.994;4.538;2022-08-06T16:51:20;24.50;49.90
15991;DHT22;8100;50.994;4.538;2022-08-06T16:54:06;24.30;49.60
15991;DHT22;8100;50.994;4.538;2022-08-06T16:56:52;24.30;50.30
15991;DHT22;8100;50.994;4.538;2022-08-06T16:59:39;24.20;50.70
15991;DHT22;8100;50.994;4.538;2022-08-06T17:02:26;24.10;50.60
15991;DHT22;8100;50.994;4.538;2022-08-06T17:05:24;23.80;50.40
15991;DHT22;8100;50.994;4.538;2022-08-06T17:07:52;23.80;49.90
15991;DHT22;8100;50.994;4.538;2022-08-06T17:10:39;23.60;49.30
15991;DHT22;8100;50.994;4.538;2022-08-06T17:13:25;23.60;49.90
15991;DHT22;8100;50.994;4.538;2022-08-06T17:16:14;23.30;49.80
15991;DHT22;8100;50.994;4.538;2022-08-06T17:19:01;23.10;50.40
15991;DHT22;8100;50.994;4.538;2022-08-06T17:21:47;22.80;50.80
15991;DHT22;8100;50.994;4.538;2022-08-06T17:24:35;22.60;51.40
15991;DHT22;8100;50.994;4.538;2022-08-06T17:27:21;22.20;52.50
15991;DHT22;8100;50.994;4.538;2022-08-06T17:30:11;22.10;52.80
15991;DHT22;8100;50.994;4.538;2022-08-06T17:32:39;22.00;53.50
15991;DHT22;8100;50.994;4.538;2022-08-06T17:35:25;22.00;53.80
15991;DHT22;8100;50.994;4.538;2022-08-06T17:38:11;22.00;54.20
15991;DHT22;8100;50.994;4.538;2022-08-06T17:40:59;22.00;54.10
15991;DHT22;8100;50.994;4.538;2022-08-06T17:43:45;22.00;54.40
15991;DHT22;8100;50.994;4.538;2022-08-06T17:46:32;21.90;54.50
15991;DHT22;8100;50.994;4.538;2022-08-06T17:48:59;21.90;55.20
15991;DHT22;8100;50.994;4.538;2022-08-06T17:51:46;21.80;55.00
15991;DHT22;8100;50.994;4.538;2022-08-06T17:54:33;21.80;54.50
15991;DHT22;8100;50.994;4.538;2022-08-06T17:57:20;21.60;55.20
15991;DHT22;8100;50.994;4.538;2022-08-06T18:00:07;21.50;56.10
15991;DHT22;8100;50.994;4.538;2022-08-06T18:02:55;21.40;56.60
15991;DHT22;8100;50.994;4.538;2022-08-06T18:05:41;21.20;57.50